Time;durP1;ratioP1;P1;durP2;ratioP2;P2;SDS_P1;SDS_P2;PMS_P1;PMS_P2;Temp;Humidity;BMP_temperature;BMP_pressure;BME280_temperature;BME280_humidity;BME280_pressure;Samples;Min_cycle;Max_cycle;Signal;HPM_P1;HPM_P2
2023/06/16 00:01:57;;;;;;;;;;;;;;;18.32;nan;100361.44;5051593;28;19928;-79
2023/06/16 00:04:25;;;;;;;;;;;;;;;18.29;nan;100367.19;5050320;28;19967;-79
2023/06/16 00:06:52;;;;;;;;;;;;;;;18.29;nan;100361.03;5052552;28;19921;-79
2023/06/16 00:09:21;;;;;;;;;;;;;;;18.27;nan;100357.72;5052476;28;19921;-78
2023/06/16 00:11:46;;;;;;;;;;;;;;;18.28;nan;100364.72;5052206;28;19925;-78
2023/06/16 00:14:12;;;;;;;;;;;;;;;18.28;nan;100370.91;5051978;28;19923;-78
2023/06/16 00:16:37;;;;;;;;;;;;;;;18.27;nan;100368.44;5051666;28;19963;-79
2023/06/16 00:19:02;;;;;;;;;;;;;;;18.24;nan;100373.16;5051181;28;20378;-78
2023/06/16 00:21:29;;;;;;;;;;;;;;;18.17;nan;100358.16;5051801;28;19917;-78
2023/06/16 00:23:55;;;;;;;;;;;;;;;18.07;nan;100358.56;5051387;28;19913;-78
2023/06/16 00:26:20;;;;;;;;;;;;;;;17.98;nan;100365.13;5051110;28;20432;-78
2023/06/16 00:28:46;;;;;;;;;;;;;;;17.86;nan;100362.25;5051504;28;20374;-78
2023/06/16 00:31:11;;;;;;;;;;;;;;;17.80;nan;100358.53;5049527;28;19916;-78
2023/06/16 00:33:36;;;;;;;;;;;;;;;17.73;nan;100363.03;5049104;28;20570;-78
2023/06/16 00:36:01;;;;;;;;;;;;;;;17.65;nan;100359.69;5050771;28;20594;-80
2023/06/16 00:38:27;;;;;;;;;;;;;;;17.55;nan;100360.91;5048081;28;19917;-78
2023/06/16 00:40:53;;;;;;;;;;;;;;;17.52;nan;100360.47;5048620;28;19917;-79
2023/06/16 00:43:18;;;;;;;;;;;;;;;17.48;nan;100354.72;5049816;28;20420;-78
2023/06/16 00:45:43;;;;;;;;;;;;;;;17.46;nan;100340.72;5049629;28;19971;-78
2023/06/16 00:48:09;;;;;;;;;;;;;;;17.41;nan;100343.19;5041905;28;19921;-78
2023/06/16 00:50:35;;;;;;;;;;;;;;;17.37;nan;100342.75;5042756;28;20538;-78
2023/06/16 00:53:00;;;;;;;;;;;;;;;17.35;nan;100344.81;5061081;28;19944;-78
2023/06/16 00:55:25;;;;;;;;;;;;;;;17.32;nan;100347.06;5050698;28;19924;-78
2023/06/16 00:57:52;;;;;;;;;;;;;;;17.25;nan;100349.69;5050957;28;19923;-78
2023/06/16 01:00:18;;;;;;;;;;;;;;;17.23;nan;100350.91;5049969;28;19969;-78
2023/06/16 01:02:46;;;;;;;;;;;;;;;17.25;nan;100351.53;5050524;28;19983;-78
2023/06/16 01:05:15;;;;;;;;;;;;;;;17.25;nan;100344.34;5050792;28;20285;-78
2023/06/16 01:07:47;;;;;;;;;;;;;;;17.30;nan;100351.78;5051513;28;19917;-79
2023/06/16 01:10:26;;;;;;;;;;;;;;;17.27;nan;100346.84;5049934;28;20463;-79
2023/06/16 01:13:12;;;;;;;;;;;;;;;17.26;nan;100346.00;5050252;28;19916;-78
2023/06/16 01:15:42;;;;;;;;;;;;;;;17.23;nan;100346.38;5049987;28;19917;-78
2023/06/16 01:18:08;;;;;;;;;;;;;;;17.17;nan;100352.56;5049759;28;19932;-79
2023/06/16 01:20:42;;;;;;;;;;;;;;;17.10;nan;100347.16;5050386;28;19924;-79
2023/06/16 01:23:26;;;;;;;;;;;;;;;17.08;nan;100354.56;5050669;28;19983;-79
2023/06/16 01:25:53;;;;;;;;;;;;;;;16.92;nan;100350.41;5050902;28;19917;-79
2023/06/16 01:28:20;;;;;;;;;;;;;;;16.79;nan;100344.16;5049201;28;19932;-78
2023/06/16 01:30:50;;;;;;;;;;;;;;;16.72;nan;100334.22;5052380;28;19924;-79
2023/06/16 01:33:16;;;;;;;;;;;;;;;16.76;nan;100334.66;5053680;28;19920;-78
2023/06/16 01:35:42;;;;;;;;;;;;;;;16.74;nan;100329.50;5055624;28;19916;-78
2023/06/16 01:38:08;;;;;;;;;;;;;;;16.68;nan;100337.47;5055194;28;19917;-78
2023/06/16 01:40:34;;;;;;;;;;;;;;;16.56;nan;100346.03;5054479;28;19913;-78
2023/06/16 01:43:00;;;;;;;;;;;;;;;16.47;nan;100341.03;5053668;28;20004;-79
2023/06/16 01:45:26;;;;;;;;;;;;;;;16.36;nan;100334.41;5055131;28;19921;-78
2023/06/16 01:47:52;;;;;;;;;;;;;;;16.25;nan;100333.06;5054283;28;20303;-79
2023/06/16 01:50:17;;;;;;;;;;;;;;;16.06;nan;100339.88;5051396;28;20010;-78
2023/06/16 01:52:43;;;;;;;;;;;;;;;15.87;nan;100335.22;5055697;28;19985;-78
2023/06/16 01:55:08;;;;;;;;;;;;;;;15.74;nan;100333.25;5055607;28;19913;-78
2023/06/16 01:57:34;;;;;;;;;;;;;;;15.65;nan;100337.84;5054740;28;19923;-78
2023/06/16 02:00:02;;;;;;;;;;;;;;;15.67;nan;100340.34;5055842;28;19920;-78
2023/06/16 02:02:28;;;;;;;;;;;;;;;15.61;nan;100341.91;5053281;28;19962;-79
2023/06/16 02:04:54;;;;;;;;;;;;;;;15.58;nan;100344.94;5053608;28;20339;-78
2023/06/16 02:07:21;;;;;;;;;;;;;;;15.52;nan;100348.38;5054441;28;19912;-78
2023/06/16 02:09:48;;;;;;;;;;;;;;;15.43;nan;100329.00;5053917;28;19920;-80
2023/06/16 02:12:13;;;;;;;;;;;;;;;15.37;nan;100339.59;5053226;28;19939;-80
2023/06/16 02:14:39;;;;;;;;;;;;;;;15.38;nan;100326.09;5051999;28;20007;-78
2023/06/16 02:17:05;;;;;;;;;;;;;;;15.43;nan;100329.00;5046422;28;19921;-78
2023/06/16 02:19:31;;;;;;;;;;;;;;;15.50;nan;100340.56;5053671;28;20444;-78
2023/06/16 02:21:57;;;;;;;;;;;;;;;15.56;nan;100333.63;5055987;28;19920;-82
2023/06/16 02:24:23;;;;;;;;;;;;;;;15.58;nan;100347.63;5058537;28;19913;-78
2023/06/16 02:26:48;;;;;;;;;;;;;;;15.59;nan;100343.94;5051983;28;20263;-78
2023/06/16 02:29:13;;;;;;;;;;;;;;;15.56;nan;100338.16;5037833;28;19924;-79
2023/06/16 02:31:38;;;;;;;;;;;;;;;15.49;nan;100338.94;5057663;28;19938;-79
2023/06/16 02:34:04;;;;;;;;;;;;;;;15.44;nan;100343.16;5055025;28;19913;-80
2023/06/16 02:36:29;;;;;;;;;;;;;;;15.32;nan;100342.00;5054301;28;19912;-79
2023/06/16 02:38:54;;;;;;;;;;;;;;;15.24;nan;100345.59;5052626;28;20362;-79
2023/06/16 02:41:20;;;;;;;;;;;;;;;15.15;nan;100336.88;5049360;28;19956;-79
2023/06/16 02:43:45;;;;;;;;;;;;;;;15.14;nan;100345.88;5036557;28;19920;-79
2023/06/16 02:46:10;;;;;;;;;;;;;;;15.14;nan;100329.09;5049732;28;19920;-81
2023/06/16 02:48:35;;;;;;;;;;;;;;;15.14;nan;100335.25;5052101;28;19923;-80
2023/06/16 02:51:00;;;;;;;;;;;;;;;15.21;nan;100340.66;5047870;28;21538;-80
2023/06/16 02:53:26;;;;;;;;;;;;;;;15.23;nan;100338.59;5051587;28;19948;-79
2023/06/16 02:55:55;;;;;;;;;;;;;;;15.23;nan;100333.28;5053249;28;19917;-80
2023/06/16 02:58:21;;;;;;;;;;;;;;;15.25;nan;100332.09;5053937;28;19923;-79
2023/06/16 03:00:46;;;;;;;;;;;;;;;15.26;nan;100344.41;5054443;28;19920;-79
2023/06/16 03:03:11;;;;;;;;;;;;;;;15.22;nan;100331.63;5052499;28;19913;-80
2023/06/16 03:05:37;;;;;;;;;;;;;;;15.16;nan;100332.38;5053759;28;19917;-79
2023/06/16 03:08:02;;;;;;;;;;;;;;;15.13;nan;100338.06;5053032;28;19996;-79
2023/06/16 03:10:27;;;;;;;;;;;;;;;15.10;nan;100333.94;5054209;28;19913;-80
2023/06/16 03:12:53;;;;;;;;;;;;;;;15.07;nan;100329.00;5053459;28;19917;-80
2023/06/16 03:15:19;;;;;;;;;;;;;;;14.99;nan;100321.94;5052536;28;19924;-79
2023/06/16 03:17:44;;;;;;;;;;;;;;;14.96;nan;100332.94;5053519;28;19912;-79
2023/06/16 03:20:10;;;;;;;;;;;;;;;14.94;nan;100337.63;5051979;28;19935;-80
2023/06/16 03:22:35;;;;;;;;;;;;;;;14.92;nan;100337.00;5052525;28;19917;-79
2023/06/16 03:25:02;;;;;;;;;;;;;;;14.96;nan;100332.13;5052521;28;19912;-79
2023/06/16 03:27:28;;;;;;;;;;;;;;;14.94;nan;100345.63;5054781;28;19940;-79
2023/06/16 03:29:53;;;;;;;;;;;;;;;14.99;nan;100327.28;5056241;28;19939;-80
2023/06/16 03:32:18;;;;;;;;;;;;;;;14.96;nan;100332.13;5056256;28;19956;-81
2023/06/16 03:34:44;;;;;;;;;;;;;;;14.98;nan;100340.75;5056882;28;19956;-80
2023/06/16 03:37:09;;;;;;;;;;;;;;;14.96;nan;100342.78;5053814;28;19924;-80
2023/06/16 03:39:34;;;;;;;;;;;;;;;14.97;nan;100334.63;5053838;28;19917;-80
2023/06/16 03:41:59;;;;;;;;;;;;;;;14.99;nan;100337.94;5048057;28;20000;-80
2023/06/16 03:44:25;;;;;;;;;;;;;;;;;;5054321;28;19912;-80
2023/06/16 03:46:50;;;;;;;;;;;;;;;14.97;nan;100329.28;5051788;28;19916;-80
2023/06/16 03:49:15;;;;;;;;;;;;;;;14.92;nan;100337.00;5051920;28;19912;-79
2023/06/16 03:51:40;;;;;;;;;;;;;;;14.95;nan;100331.31;5046537;28;19928;-79
2023/06/16 03:54:06;;;;;;;;;;;;;;;14.92;nan;100342.34;5050728;28;19916;-80
2023/06/16 03:56:31;;;;;;;;;;;;;;;14.89;nan;100332.03;5052704;28;20382;-79
2023/06/16 03:58:56;;;;;;;;;;;;;;;;;;5036366;28;20013;-79
2023/06/16 04:01:22;;;;;;;;;;;;;;;14.79;nan;100334.16;5031981;28;20408;-80
2023/06/16 04:03:49;;;;;;;;;;;;;;;14.77;nan;100338.84;5054059;28;19970;-81
2023/06/16 04:06:14;;;;;;;;;;;;;;;;;;5081470;28;19913;-78
2023/06/16 04:08:40;;;;;;;;;;;;;;;14.78;nan;100335.19;5064866;28;19955;-78
2023/06/16 04:11:05;;;;;;;;;;;;;;;14.75;nan;100335.53;5049881;28;20401;-78
2023/06/16 04:13:30;;;;;;;;;;;;;;;;;;5058583;28;19920;-81
2023/06/16 04:15:56;;;;;;;;;;;;;;;14.75;nan;100330.22;5054993;28;19928;-79
2023/06/16 04:18:21;;;;;;;;;;;;;;;14.73;nan;100348.19;5060243;28;19924;-80
2023/06/16 04:20:46;;;;;;;;;;;;;;;14.73;nan;100342.88;5060152;28;20337;-81
2023/06/16 04:23:11;;;;;;;;;;;;;;;14.73;nan;100342.88;5060866;28;19917;-82
2023/06/16 04:25:38;;;;;;;;;;;;;;;14.68;nan;100351.41;5060538;28;19919;-81
2023/06/16 04:28:03;;;;;;;;;;;;;;;14.65;nan;100351.78;5060659;28;19917;-80
2023/06/16 04:30:30;;;;;;;;;;;;;;;14.65;nan;100341.94;5060663;28;19919;-81
2023/06/16 04:32:58;;;;;;;;;;;;;;;14.67;nan;100356.94;5061838;28;19924;-81
2023/06/16 04:35:27;;;;;;;;;;;;;;;14.75;nan;100335.53;5058890;28;19919;-80
2023/06/16 04:37:53;;;;;;;;;;;;;;;14.79;nan;100345.63;5051839;28;19966;-79
2023/06/16 04:40:18;;;;;;;;;;;;;;;14.82;nan;100341.78;5058159;28;19934;-78
2023/06/16 04:42:44;;;;;;;;;;;;;;;14.88;nan;100341.03;5053844;28;19944;-80
2023/06/16 04:45:09;;;;;;;;;;;;;;;15.01;nan;100357.19;5063602;28;19920;-80
2023/06/16 04:47:35;;;;;;;;;;;;;;;15.13;nan;100365.53;5057604;28;19950;-80
2023/06/16 04:50:01;;;;;;;;;;;;;;;15.22;nan;100368.94;5065824;28;19913;-79
2023/06/16 04:52:26;;;;;;;;;;;;;;;15.24;nan;100356.25;5065981;28;20206;-81
2023/06/16 04:54:51;;;;;;;;;;;;;;;15.33;nan;100376.44;5073172;28;19933;-77
2023/06/16 04:57:16;;;;;;;;;;;;;;;15.41;nan;100360.34;5066424;28;19935;-80
2023/06/16 04:59:42;;;;;;;;;;;;;;;15.56;nan;100359.47;5067803;28;19924;-79
2023/06/16 05:02:07;;;;;;;;;;;;;;;15.59;nan;100365.28;5064973;28;19921;-80
2023/06/16 05:04:32;;;;;;;;;;;;;;;15.66;nan;100370.66;5063939;28;19916;-79
2023/06/16 05:06:58;;;;;;;;;;;;;;;15.73;nan;100376.09;5064877;28;20354;-78
2023/06/16 05:09:24;;;;;;;;;;;;;;;15.67;nan;100380.31;5067965;28;19918;-78
2023/06/16 05:11:49;;;;;;;;;;;;;;;15.62;nan;100370.22;5062741;28;19913;-79
2023/06/16 05:14:14;;;;;;;;;;;;;;;15.61;nan;100373.91;5059472;28;19923;-77
2023/06/16 05:16:39;;;;;;;;;;;;;;;15.49;nan;100375.38;5071677;28;19921;-78
2023/06/16 05:19:05;;;;;;;;;;;;;;;15.49;nan;100375.38;5072284;28;19947;-79
2023/06/16 05:21:30;;;;;;;;;;;;;;;15.54;nan;100369.50;5071795;28;20030;-78
2023/06/16 05:23:57;;;;;;;;;;;;;;;15.57;nan;100369.13;5068538;28;19968;-78
2023/06/16 05:26:22;;;;;;;;;;;;;;;;;;5070398;28;19916;-80
2023/06/16 05:28:48;;;;;;;;;;;;;;;15.76;nan;100381.88;5059583;28;19963;-77
2023/06/16 05:31:13;;;;;;;;;;;;;;;15.88;nan;100390.22;5064500;28;19928;-77
2023/06/16 05:33:39;;;;;;;;;;;;;;;16.08;nan;100379.72;5066598;28;19917;-80
2023/06/16 05:36:04;;;;;;;;;;;;;;;16.31;nan;100391.00;5060899;28;19959;-82
2023/06/16 05:38:30;;;;;;;;;;;;;;;16.50;nan;100400.19;5058990;28;19921;-81
2023/06/16 05:40:55;;;;;;;;;;;;;;;16.61;nan;100401.50;5055859;28;20004;-80
2023/06/16 05:43:21;;;;;;;;;;;;;;;16.71;nan;100399.31;5055523;28;20432;-81
2023/06/16 05:45:46;;;;;;;;;;;;;;;16.89;nan;100414.88;5060540;28;19921;-81
2023/06/16 05:48:11;;;;;;;;;;;;;;;17.15;nan;100397.34;5056024;28;20037;-81
2023/06/16 05:50:36;;;;;;;;;;;;;;;;;;5058858;28;19995;-81
2023/06/16 05:53:01;;;;;;;;;;;;;;;17.88;nan;100428.91;5056596;28;19959;-80
2023/06/16 05:55:26;;;;;;;;;;;;;;;18.29;nan;100404.69;5057349;28;19940;-80
2023/06/16 05:57:52;;;;;;;;;;;;;;;18.67;nan;100428.97;5043353;28;19921;-80
2023/06/16 06:00:17;;;;;;;;;;;;;;;19.17;nan;100435.72;5061307;28;19924;-82
2023/06/16 06:02:42;;;;;;;;;;;;;;;19.68;nan;100446.47;5067370;28;19916;-82
2023/06/16 06:05:07;;;;;;;;;;;;;;;20.23;nan;100459.38;5074420;28;19947;-82
2023/06/16 06:07:33;;;;;;;;;;;;;;;20.78;nan;100456.09;5058077;28;19951;-80
2023/06/16 06:09:58;;;;;;;;;;;;;;;20.97;nan;100465.84;5071849;28;19925;-80
2023/06/16 06:12:23;;;;;;;;;;;;;;;21.06;nan;100452.09;5065753;28;19916;-82
2023/06/16 06:14:48;;;;;;;;;;;;;;;21.12;nan;100464.66;5064243;28;19939;-81
2023/06/16 06:17:13;;;;;;;;;;;;;;;21.59;nan;100475.75;5055223;28;19921;-82
2023/06/16 06:19:39;;;;;;;;;;;;;;;22.06;nan;100478.66;5053481;28;19928;-81
2023/06/16 06:22:04;;;;;;;;;;;;;;;22.62;nan;100488.19;5062298;28;19935;-81
2023/06/16 06:24:29;;;;;;;;;;;;;;;23.16;nan;100498.09;5059600;28;19924;-83
2023/06/16 06:26:56;;;;;;;;;;;;;;;23.47;nan;100494.16;5066226;28;19920;-82
2023/06/16 06:29:22;;;;;;;;;;;;;;;23.96;nan;100502.75;5063062;28;19917;-81
2023/06/16 06:31:47;;;;;;;;;;;;;;;24.17;nan;100510.19;5056195;28;20488;-79
2023/06/16 06:34:12;;;;;;;;;;;;;;;24.50;nan;100518.59;5065566;28;19912;-83
2023/06/16 06:36:39;;;;;;;;;;;;;;;24.62;nan;100516.63;5061713;28;19924;-81
2023/06/16 06:39:04;;;;;;;;;;;;;;;24.78;nan;100521.22;5061567;28;20293;-81
2023/06/16 06:41:29;;;;;;;;;;;;;;;25.12;nan;100515.81;5058335;28;19917;-81
2023/06/16 06:43:54;;;;;;;;;;;;;;;25.59;nan;100515.38;5058975;28;19970;-81
2023/06/16 06:46:20;;;;;;;;;;;;;;;26.06;nan;100535.72;5060786;28;20411;-82
2023/06/16 06:48:45;;;;;;;;;;;;;;;26.30;nan;100567.97;5059542;28;19916;-81
2023/06/16 06:51:12;;;;;;;;;;;;;;;26.40;nan;100540.94;5054117;28;19920;-80
2023/06/16 06:53:37;;;;;;;;;;;;;;;26.37;nan;100536.84;5053101;28;19919;-82
2023/06/16 06:56:02;;;;;;;;;;;;;;;26.61;nan;100512.16;5067405;28;19940;-84
2023/06/16 06:58:27;;;;;;;;;;;;;;;26.90;nan;100529.72;5047054;28;20118;-83
2023/06/16 07:00:53;;;;;;;;;;;;;;;27.06;nan;100538.00;5046785;28;19913;-81
2023/06/16 07:03:18;;;;;;;;;;;;;;;27.22;nan;100539.75;5062722;28;19917;-81
2023/06/16 07:05:43;;;;;;;;;;;;;;;27.57;nan;100543.72;5064017;28;19919;-82
2023/06/16 07:08:08;;;;;;;;;;;;;;;27.89;nan;100551.78;5063557;28;19966;-81
2023/06/16 07:10:35;;;;;;;;;;;;;;;28.00;nan;100552.63;5060963;28;19913;-83
2023/06/16 07:13:00;;;;;;;;;;;;;;;28.05;nan;100551.81;5045967;28;19940;-81
2023/06/16 07:15:26;;;;;;;;;;;;;;;26.93;nan;100557.44;5054030;28;19928;-82
2023/06/16 07:17:51;;;;;;;;;;;;;;;27.22;nan;100552.50;5056633;28;19916;-80
2023/06/16 07:20:16;;;;;;;;;;;;;;;26.71;nan;100552.91;5068421;28;19944;-82
2023/06/16 07:22:45;;;;;;;;;;;;;;;26.81;nan;100558.41;5050892;28;20306;-78
2023/06/16 07:25:10;;;;;;;;;;;;;;;26.98;nan;100557.47;5056541;28;20305;-79
2023/06/16 07:27:35;;;;;;;;;;;;;;;26.89;nan;100566.09;5066217;28;19904;-79
2023/06/16 07:30:01;;;;;;;;;;;;;;;26.79;nan;100565.19;5051027;28;19917;-81
2023/06/16 07:32:26;;;;;;;;;;;;;;;27.10;nan;100561.63;5048548;28;19976;-82
2023/06/16 07:34:52;;;;;;;;;;;;;;;27.24;nan;100569.34;5048187;28;19913;-81
2023/06/16 07:37:17;;;;;;;;;;;;;;;27.19;nan;100563.84;5047045;28;19920;-82
2023/06/16 07:39:42;;;;;;;;;;;;;;;26.90;nan;100562.28;5048646;28;19920;-79
2023/06/16 07:42:08;;;;;;;;;;;;;;;27.52;nan;100557.28;5061482;28;19916;-81
2023/06/16 07:44:33;;;;;;;;;;;;;;;27.88;nan;100561.00;5067519;28;19917;-80
2023/06/16 07:46:58;;;;;;;;;;;;;;;28.28;nan;100566.84;5059370;28;19913;-81
2023/06/16 07:49:24;;;;;;;;;;;;;;;28.96;nan;100558.47;5057450;28;20000;-81
2023/06/16 07:51:49;;;;;;;;;;;;;;;29.21;nan;100560.38;5067721;28;19913;-82
2023/06/16 07:54:15;;;;;;;;;;;;;;;29.59;nan;100556.19;5063230;28;19937;-81
2023/06/16 07:56:41;;;;;;;;;;;;;;;29.51;nan;100564.09;5065590;28;19913;-81
2023/06/16 07:59:06;;;;;;;;;;;;;;;29.49;nan;100563.59;5064237;28;20489;-81
2023/06/16 08:01:31;;;;;;;;;;;;;;;28.98;nan;100554.41;5059173;28;20410;-83
2023/06/16 08:03:56;;;;;;;;;;;;;;;28.96;nan;100553.84;5043779;28;19947;-83
2023/06/16 08:06:22;;;;;;;;;;;;;;;28.52;nan;100559.00;5044866;28;19913;-82
2023/06/16 08:08:47;;;;;;;;;;;;;;;29.04;nan;100559.84;5043741;28;19917;-82
2023/06/16 08:11:12;;;;;;;;;;;;;;;29.63;nan;100568.16;5042239;28;19920;-80
2023/06/16 08:13:37;;;;;;;;;;;;;;;30.12;nan;100563.06;5043099;28;19917;-80
2023/06/16 08:16:04;;;;;;;;;;;;;;;29.33;nan;100558.16;5049163;28;20454;-80
2023/06/16 08:18:29;;;;;;;;;;;;;;;29.04;nan;100555.19;5058707;28;19920;-80
2023/06/16 08:20:55;;;;;;;;;;;;;;;29.19;nan;100548.94;5043484;28;20019;-79
2023/06/16 08:23:20;;;;;;;;;;;;;;;29.95;nan;100552.50;5043445;28;19939;-79
2023/06/16 08:25:45;;;;;;;;;;;;;;;30.57;nan;100559.22;5044628;28;19920;-79
2023/06/16 08:28:11;;;;;;;;;;;;;;;29.72;nan;100565.69;5045571;28;19924;-80
2023/06/16 08:30:36;;;;;;;;;;;;;;;29.64;nan;100558.06;5046632;28;19948;-79
2023/06/16 08:33:02;;;;;;;;;;;;;;;29.66;nan;100565.97;5056314;28;19916;-77
2023/06/16 08:35:27;;;;;;;;;;;;;;;29.78;nan;100555.59;5063828;28;19917;-80
2023/06/16 08:37:52;;;;;;;;;;;;;;;30.36;nan;100552.28;5050261;28;19913;-78
2023/06/16 08:40:18;;;;;;;;;;;;;;;30.54;nan;100559.81;5052171;28;19940;-79
2023/06/16 08:42:44;;;;;;;;;;;;;;;30.29;nan;100551.78;5055220;28;19951;-81
2023/06/16 08:45:10;;;;;;;;;;;;;;;30.97;nan;100551.03;5059928;28;19905;-81
2023/06/16 08:47:38;;;;;;;;;;;;;;;31.59;nan;100557.47;5066596;28;19951;-83
2023/06/16 08:50:03;;;;;;;;;;;;;;;31.06;nan;100557.50;5062809;28;19921;-81
2023/06/16 08:55:18;;;;;;;;;;;;;;;32.20;nan;100557.78;5062907;28;19955;-82
2023/06/16 08:57:46;;;;;;;;;;;;;;;32.81;nan;100554.09;5040982;28;20123;-83
2023/06/16 09:00:13;;;;;;;;;;;;;;;33.46;nan;100558.69;5070867;28;19924;-84
2023/06/16 09:02:38;;;;;;;;;;;;;;;32.31;nan;100562.00;5070382;28;19917;-82
2023/06/16 09:05:04;;;;;;;;;;;;;;;32.55;nan;100556.47;5081849;28;19917;-80
2023/06/16 09:07:29;;;;;;;;;;;;;;;32.46;nan;100552.75;5071195;28;19917;-78
2023/06/16 09:09:55;;;;;;;;;;;;;;;32.96;nan;100545.59;5072552;28;19920;-80
2023/06/16 09:12:20;;;;;;;;;;;;;;;32.50;nan;100554.63;5077232;28;19917;-79
2023/06/16 09:14:49;;;;;;;;;;;;;;;33.39;nan;100548.09;5075943;28;19928;-79
2023/06/16 09:17:18;;;;;;;;;;;;;;;34.06;nan;100552.22;5074300;28;19974;-82
2023/06/16 09:19:47;;;;;;;;;;;;;;;34.83;nan;100544.94;5079020;28;19974;-79
2023/06/16 09:22:13;;;;;;;;;;;;;;;34.82;nan;100548.81;5070150;28;19917;-77
2023/06/16 09:24:39;;;;;;;;;;;;;;;35.04;nan;100556.19;5077742;28;20479;-77
2023/06/16 09:27:04;;;;;;;;;;;;;;;35.77;nan;100551.16;5081102;28;19923;-80
2023/06/16 09:29:29;;;;;;;;;;;;;;;34.20;nan;100549.47;5071663;28;19921;-80
2023/06/16 09:32:07;;;;;;;0.00;0.00;;;;;;;32.38;nan;100579.66;5078784;28;19987;-82
2023/06/16 09:34:33;;;;;;;0.00;0.00;;;;;;;;;;5078826;28;20066;-83
2023/06/16 09:36:58;;;;;;;0.00;0.00;;;;;;;;;;5071793;28;20429;-81
2023/06/16 09:39:25;;;;;;;0.00;0.00;;;;;;;33.38;nan;100529.25;5068626;28;20459;-84
2023/06/16 09:41:52;;;;;;;0.00;0.00;;;;;;;32.59;nan;100530.13;5072846;28;20052;-84
2023/06/16 09:44:17;;;;;;;;;;;;;;;33.49;nan;100527.09;5077248;28;20067;-80
2023/06/16 09:46:43;;;;;;;;;;;;;;;34.07;nan;100528.34;5079471;28;20284;-79
2023/06/16 09:49:20;;;;;;;0.00;0.00;;;;;;;33.60;nan;100536.78;5071207;28;19920;-84
2023/06/16 09:51:50;;;;;;;0.00;0.00;;;;;;;;;;5072495;28;20041;-83
2023/06/16 09:54:16;;;;;;;0.00;0.00;;;;;;;33.52;nan;100521.03;5076737;28;20063;-82
2023/06/16 09:56:44;;;;;;;0.00;0.00;;;;;;;33.83;nan;100502.81;5079209;28;20097;-80
2023/06/16 09:59:09;;;;;;;0.00;0.00;;;;;;;34.35;nan;100512.59;5084771;28;20037;-81
2023/06/16 10:01:38;;;;;;;0.00;0.00;;;;;;;35.12;nan;100503.25;5081734;28;20039;-81
2023/06/16 10:04:04;;;;;;;0.00;0.00;;;;;;;;;;5076494;28;20055;-81
2023/06/16 10:06:32;;;;;;;0.00;0.00;;;;;;;36.08;nan;100529.00;5067067;28;20033;-83
2023/06/16 10:08:59;;;;;;;0.00;0.00;;;;;;;33.82;nan;100533.28;5079019;28;20452;-83
2023/06/16 10:11:28;;;;;;;0.00;0.00;;;;;;;34.59;nan;100528.78;5077155;28;20020;-81
2023/06/16 10:13:57;;;;;;;0.00;0.00;;;;;;;35.46;nan;100463.22;5074044;28;20092;-79
2023/06/16 10:16:29;;;;;;;0.00;0.00;;;;;;;36.42;nan;100510.88;5071594;28;20037;-81
2023/06/16 10:18:57;;;;;;;0.00;0.00;;;;;;;;;;5076953;28;20035;-80
2023/06/16 10:21:23;;;;;;;0.00;0.00;;;;;;;37.33;nan;100560.41;5068214;28;20105;-79
2023/06/16 10:23:49;;;;;;;0.00;0.00;;;;;;;;;;5072113;28;20037;-79
2023/06/16 10:26:14;;;;;;;0.00;0.00;;;;;;;36.86;nan;100514.38;5083451;28;20024;-79
2023/06/16 10:28:40;;;;;;;0.00;0.00;;;;;;;;;;5086998;28;20051;-82
2023/06/16 10:31:06;;;;;;;0.00;0.00;;;;;;;35.23;nan;100514.75;5081295;28;20045;-82
2023/06/16 10:33:53;;;;;;;0.00;0.00;;;;;;;34.91;nan;100513.94;5074356;28;20116;-80
2023/06/16 10:36:23;;;;;;;0.00;0.00;;;;;;;35.93;nan;100505.53;5068590;28;20041;-78
2023/06/16 10:39:00;;;;;;;0.00;0.00;;;;;;;35.33;nan;100508.16;5068743;28;20036;-81
2023/06/16 10:41:29;;;;;;;0.00;0.00;;;;;;;35.30;nan;100515.94;5072963;28;20104;-82
2023/06/16 10:43:55;;;;;;;0.00;0.00;;;;;;;34.39;nan;100525.41;5070534;28;20039;-84
2023/06/16 10:46:21;;;;;;;0.00;0.00;;;;;;;;;;5078295;28;20047;-83
2023/06/16 10:49:05;;;;;;;0.00;0.00;;;;;;;35.94;nan;100492.56;5072412;28;20021;-79
2023/06/16 10:51:41;;;;;;;0.00;0.00;;;;;;;;;;5067024;28;20039;-82
2023/06/16 10:54:08;;;;;;;0.00;0.00;;;;;;;36.07;nan;100474.28;5072809;28;20049;-81
2023/06/16 10:57:02;;;;;;;0.00;0.00;;;;;;;35.00;nan;100511.25;5080829;28;20433;-80
2023/06/16 10:59:27;;;;;;;0.00;0.00;;;;;;;35.80;nan;100511.19;5072742;28;20352;-81
2023/06/16 11:01:57;;;;;;;0.00;0.00;;;;;;;36.87;nan;100506.91;5053892;28;20033;-80
2023/06/16 11:04:24;;;;;;;0.00;0.00;;;;;;;35.47;nan;100514.34;5074349;28;20037;-84
2023/06/16 11:07:07;;;;;;;0.00;0.00;;;;;;;35.76;nan;100500.03;5067508;28;20063;-78
2023/06/16 11:09:32;;;;;;;0.00;0.00;;;;;;;37.29;nan;100461.00;5065703;28;20049;-78
2023/06/16 11:11:59;;;;;;;0.00;0.00;;;;;;;36.26;nan;100490.50;5077045;28;20051;-80
2023/06/16 11:14:25;;;;;;;0.00;0.00;;;;;;;36.46;nan;100514.59;5073119;28;20033;-80
2023/06/16 11:16:51;;;;;;;0.00;0.00;;;;;;;37.05;nan;100499.38;5073226;28;20033;-80
2023/06/16 11:19:19;;;;;;;0.00;0.00;;;;;;;37.18;nan;100501.91;5084614;28;20037;-77
2023/06/16 11:21:45;;;;;;;0.00;0.00;;;;;;;38.27;nan;100471.78;5080764;28;20048;-79
2023/06/16 11:24:11;;;;;;;0.00;0.00;;;;;;;39.07;nan;100499.03;5072535;28;20036;-77
2023/06/16 11:26:37;;;;;;;0.00;0.00;;;;;;;38.91;nan;100453.03;5064124;28;20063;-78
2023/06/16 11:29:05;;;;;;;0.00;0.00;;;;;;;39.17;nan;100500.53;5078218;28;20096;-78
2023/06/16 11:31:31;;;;;;;0.00;0.00;;;;;;;39.52;nan;100500.06;5082310;28;20040;-78
2023/06/16 11:33:56;;;;;;;0.00;0.00;;;;;;;39.67;nan;100481.94;5066596;28;20063;-82
2023/06/16 11:36:23;;;;;;;0.00;0.00;;;;;;;39.30;nan;100495.78;5058904;28;20055;-78
2023/06/16 11:38:51;;;;;;;0.00;0.00;;;;;;;38.54;nan;100475.91;5061525;28;20113;-79
2023/06/16 11:41:23;;;;;;;0.00;0.00;;;;;;;39.78;nan;100466.44;5051861;28;20075;-80
2023/06/16 11:43:50;;;;;;;0.00;0.00;;;;;;;37.93;nan;100479.22;5053487;28;20043;-81
2023/06/16 11:46:19;;;;;;;0.00;0.00;;;;;;;37.79;nan;100475.94;5050300;28;20037;-81
2023/06/16 11:48:44;;;;;;;0.00;0.00;;;;;;;37.88;nan;100484.94;5048988;28;20025;-80
2023/06/16 11:51:10;;;;;;;;;;;;;;;36.94;nan;100477.69;5051065;28;20037;-80
2023/06/16 11:53:36;;;;;;;0.00;0.00;;;;;;;35.50;nan;100477.97;5053752;28;19966;-81
2023/06/16 11:56:06;;;;;;;0.00;0.00;;;;;;;36.09;nan;100467.34;5053659;28;20040;-80
2023/06/16 11:58:31;;;;;;;0.00;0.00;;;;;;;;;;5053559;28;20037;-80
2023/06/16 12:01:01;;;;;;;0.00;0.00;;;;;;;38.21;nan;100464.84;5053801;28;20032;-80
2023/06/16 12:03:33;;;;;;;0.00;0.00;;;;;;;38.69;nan;100470.84;5051680;28;20490;-80
2023/06/16 12:06:00;;;;;;;0.00;0.00;;;;;;;37.49;nan;100461.34;5047019;28;20040;-80
2023/06/16 12:08:42;;;;;;;0.00;0.00;;;;;;;34.45;nan;100463.75;5052593;28;20106;-80
2023/06/16 12:11:23;;;;;;;0.00;0.00;;;;;;;33.62;nan;100452.28;5063841;28;20075;-80
2023/06/16 12:13:50;;;;;;;0.00;0.00;;;;;;;34.77;nan;100502.25;5068271;28;20135;-82
2023/06/16 12:16:16;;;;;;;0.00;0.00;;;;;;;36.20;nan;100467.81;5053607;28;20041;-83
2023/06/16 12:18:41;;;;;;;0.00;0.00;;;;;;;36.42;nan;100488.03;5054928;28;20037;-84
2023/06/16 12:21:18;;;;;;;0.00;0.00;;;;;;;34.27;nan;100489.47;5056863;28;20509;-85
2023/06/16 12:23:48;;;;;;;0.00;0.00;;;;;;;32.44;nan;100445.47;5061308;28;20116;-83
2023/06/16 12:26:39;;;;;;;0.00;0.00;;;;;;;30.84;nan;100444.09;5051871;28;20511;-80
2023/06/16 12:29:12;;;;;;;;;;;;;;;30.76;nan;100441.97;5060940;28;20040;-80
2023/06/16 12:31:48;;;;;;;;;;;;;;;31.49;nan;100440.09;5070002;28;19923;-80
2023/06/16 12:34:23;;;;;;;;;;;;;;;31.53;nan;100443.84;5060429;28;20041;-82
2023/06/16 12:36:50;;;;;;;;;;;;;;;32.43;nan;100435.66;5063709;28;19927;-81
2023/06/16 12:39:18;;;;;;;;;;;;;;;32.13;nan;100435.88;5061517;28;19920;-83
2023/06/16 12:41:57;;;;;;;;;;;;;;;32.08;nan;100437.88;5064974;28;19920;-80
2023/06/16 12:44:22;;;;;;;;;;;;;;;32.21;nan;100428.09;5065161;28;20146;-85
2023/06/16 12:46:47;;;;;;;;;;;;;;;31.40;nan;100431.72;5060512;28;20089;-82
2023/06/16 12:49:12;;;;;;;;;;;;;;;30.70;nan;100424.00;5061761;28;19920;-82